Terminal Aerodrome Forecast
Issued by NWS Sterling, VA

Current Version | Previous Version | Text Only | Print | Product List | Glossary Off
Versions: 1 2 3 4 5 6 7 8 9 10 11 12 13 14 15 16 17 18 19 20 21 22 23 24 25 26 27 28 29

243
FTUS41 KLWX 161740
TAFDCA
TAF
KDCA 161740Z 1618/1724 23011KT P6SM -SHRA OVC060
     FM162000 32014G23KT P6SM -SHRA OVC045
     FM162100 32016G26KT P6SM OVC050
     FM170200 33013G20KT P6SM SCT200
     FM170800 35005KT P6SM SKC
     FM171400 07005KT P6SM SCT150
     FM171800 13005KT P6SM BKN110
     FM172100 14006KT 1 1/2SM -SN OVC040=

USA.gov is the U.S. government's official web portal to all federal, state and local government web resources and services.